createdAt,value
2023-05-19T00:01:17.246Z,2.70
2023-05-19T00:04:36.215Z,2.20
2023-05-19T00:07:53.200Z,2.40
2023-05-19T00:11:12.225Z,2.47
2023-05-19T00:14:16.234Z,2.70
2023-05-19T00:17:35.299Z,2.90
2023-05-19T00:20:39.242Z,2.70
2023-05-19T00:24:12.300Z,2.00
2023-05-19T00:27:16.265Z,2.80
2023-05-19T00:30:35.217Z,2.50
2023-05-19T00:33:39.523Z,2.87
2023-05-19T00:36:56.263Z,2.85
2023-05-19T00:40:17.345Z,3.30
2023-05-19T00:43:33.458Z,2.75
2023-05-19T00:46:37.490Z,2.47
2023-05-19T00:49:56.299Z,3.23
2023-05-19T00:53:12.534Z,2.90
2023-05-19T00:56:44.486Z,2.77
2023-05-19T00:59:48.457Z,2.83
2023-05-19T01:03:07.528Z,3.10
2023-05-19T01:06:23.357Z,3.00
2023-05-19T01:09:42.402Z,3.53
2023-05-19T01:12:59.525Z,2.90
2023-05-19T01:16:31.547Z,3.37
2023-05-19T01:19:53.412Z,2.65
2023-05-19T01:23:28.476Z,2.90
2023-05-19T01:27:06.049Z,2.90
2023-05-19T01:30:53.564Z,3.50
2023-05-19T01:34:09.428Z,3.73
2023-05-19T01:37:38.595Z,3.10
2023-05-19T01:40:54.488Z,3.07
2023-05-19T01:44:23.556Z,3.07
2023-05-19T01:47:55.601Z,3.30
2023-05-19T01:51:11.523Z,3.20
2023-05-19T01:54:15.489Z,2.80
2023-05-19T01:57:46.648Z,3.30
2023-05-19T02:01:03.575Z,3.10
2023-05-19T02:04:39.588Z,3.90
2023-05-19T02:07:56.693Z,3.70
2023-05-19T02:11:27.672Z,3.13
2023-05-19T02:14:43.923Z,3.30
2023-05-19T02:18:11.615Z,3.10
2023-05-19T02:21:46.653Z,3.80
2023-05-19T02:24:50.651Z,4.00
2023-05-19T02:28:21.711Z,4.20
2023-05-19T02:31:25.703Z,2.70
2023-05-19T02:34:41.865Z,4.70
2023-05-19T02:38:10.681Z,3.57
2023-05-19T02:41:29.717Z,3.50
2023-05-19T02:44:45.736Z,3.00
2023-05-19T02:48:04.706Z,3.70
2023-05-19T02:51:20.673Z,3.07
2023-05-19T02:54:58.922Z,4.30
2023-05-19T02:58:14.762Z,3.30
2023-05-19T03:01:34.848Z,3.70
2023-05-19T03:04:38.733Z,3.70
2023-05-19T03:07:57.785Z,3.70
2023-05-19T03:11:14.901Z,3.00
2023-05-19T03:14:33.780Z,3.83
2023-05-19T03:17:37.880Z,4.40
2023-05-19T03:20:56.827Z,3.57
2023-05-19T03:24:12.829Z,3.75
2023-05-19T03:27:50.922Z,3.43
2023-05-19T03:31:06.951Z,4.13
2023-05-19T03:34:25.849Z,3.63
2023-05-19T03:37:41.825Z,3.20
2023-05-19T03:41:00.888Z,4.00
2023-05-19T03:44:30.028Z,4.00
2023-05-19T03:47:49.001Z,3.55
2023-05-19T03:51:04.940Z,4.20
2023-05-19T03:54:23.888Z,4.67
2023-05-19T03:57:28.008Z,3.90
2023-05-19T04:00:56.908Z,4.40
2023-05-19T04:04:14.170Z,4.20
2023-05-19T04:07:17.915Z,3.90
2023-05-19T04:10:45.871Z,4.53
2023-05-19T04:13:50.036Z,4.30
2023-05-19T04:17:19.094Z,4.67
2023-05-19T04:20:23.040Z,5.50
2023-05-19T04:23:55.049Z,4.47
2023-05-19T04:27:23.104Z,5.20
2023-05-19T04:30:41.971Z,5.03
2023-05-19T04:34:13.975Z,5.20
2023-05-19T04:37:45.029Z,4.47
2023-05-19T04:41:07.190Z,4.70
2023-05-19T04:44:26.055Z,5.27
2023-05-19T04:47:42.378Z,4.90
2023-05-19T04:51:17.158Z,4.70
2023-05-19T04:54:21.053Z,4.50
2023-05-19T04:57:37.127Z,4.50
2023-05-19T05:00:53.226Z,4.27
2023-05-19T05:04:12.212Z,4.20
2023-05-19T05:07:30.846Z,4.10
2023-05-19T05:10:48.153Z,4.20
2023-05-19T05:14:04.171Z,4.20
2023-05-19T05:17:35.191Z,3.93
2023-05-19T05:20:51.262Z,3.50
2023-05-19T05:24:23.286Z,3.33
2023-05-19T05:27:54.231Z,4.00
2023-05-19T05:31:10.266Z,3.33
2023-05-19T05:34:26.289Z,3.50
2023-05-19T05:37:57.299Z,3.73
2023-05-19T05:41:29.311Z,3.80
2023-05-19T05:44:51.283Z,3.47
2023-05-19T05:48:19.141Z,3.20
2023-05-19T05:51:57.954Z,3.70
2023-05-19T05:55:04.318Z,3.15
2023-05-19T05:58:37.371Z,3.25
2023-05-19T06:01:52.369Z,3.57
2023-05-19T06:05:11.310Z,3.40
2023-05-19T06:08:27.337Z,3.23
2023-05-19T06:11:46.432Z,3.40
2023-05-19T06:15:18.468Z,3.60
2023-05-19T06:18:35.426Z,3.30
2023-05-19T06:21:51.437Z,3.80
2023-05-19T06:25:10.448Z,3.13
2023-05-19T06:28:26.540Z,2.80
2023-05-19T06:32:04.420Z,3.10
2023-05-19T06:35:20.455Z,3.55
2023-05-19T06:38:39.504Z,3.30
2023-05-19T06:41:55.450Z,2.60
2023-05-19T06:45:13.482Z,2.70
2023-05-19T06:48:42.504Z,2.87
2023-05-19T06:52:01.506Z,3.00
2023-05-19T06:55:17.426Z,2.95
2023-05-19T06:58:36.451Z,2.67
2023-05-19T07:01:52.569Z,2.70
2023-05-19T07:05:25.460Z,2.60
2023-05-19T07:08:41.597Z,3.20
2023-05-19T07:12:00.535Z,2.40
2023-05-19T07:15:28.530Z,2.53
2023-05-19T07:18:45.522Z,2.97
2023-05-19T07:22:14.536Z,2.87
2023-05-19T07:25:31.660Z,2.60
2023-05-19T07:28:35.783Z,2.27
2023-05-19T07:31:51.518Z,2.47
2023-05-19T07:35:07.636Z,2.90
2023-05-19T07:38:39.739Z,2.37
2023-05-19T07:41:43.616Z,2.23
2023-05-19T07:45:02.660Z,2.37
2023-05-19T07:48:06.640Z,2.10
2023-05-19T07:51:37.780Z,1.80
2023-05-19T07:54:56.896Z,2.63
2023-05-19T07:58:15.635Z,1.90
2023-05-19T08:01:19.757Z,2.43
2023-05-19T08:04:35.705Z,1.80
2023-05-19T08:07:39.691Z,2.03
2023-05-19T08:11:12.743Z,2.13
2023-05-19T08:14:16.699Z,2.00
2023-05-19T08:17:35.736Z,2.10
2023-05-19T08:20:39.828Z,1.77
2023-05-19T08:23:58.713Z,2.13
2023-05-19T08:27:18.867Z,2.80
2023-05-19T08:30:37.849Z,1.80
2023-05-19T08:33:41.784Z,2.00
2023-05-19T08:36:57.847Z,1.83
2023-05-19T08:40:01.776Z,2.20
2023-05-19T08:43:33.765Z,2.10
2023-05-19T08:46:49.941Z,1.75
2023-05-19T08:50:21.851Z,2.05
2023-05-19T08:53:37.880Z,2.10
2023-05-19T08:57:11.860Z,2.45
2023-05-19T09:00:28.956Z,2.30
2023-05-19T09:04:00.040Z,1.90
2023-05-19T09:07:03.774Z,1.90
2023-05-19T09:10:20.065Z,2.07
2023-05-19T09:13:35.935Z,1.83
2023-05-19T09:17:09.034Z,1.77
2023-05-19T09:20:31.798Z,1.80
2023-05-19T09:24:01.041Z,2.10
2023-05-19T09:27:05.963Z,1.80
2023-05-19T09:30:24.942Z,1.65
2023-05-19T09:33:46.287Z,1.50
2023-05-19T09:37:17.048Z,2.07
2023-05-19T09:40:33.944Z,2.00
2023-05-19T09:43:53.054Z,1.60
2023-05-19T09:47:15.071Z,2.10
2023-05-19T09:50:47.134Z,2.25
2023-05-19T09:54:02.985Z,2.33
2023-05-19T09:57:33.956Z,2.03
2023-05-19T10:00:50.080Z,1.90
2023-05-19T10:04:09.014Z,1.60
2023-05-19T10:07:26.516Z,1.83
2023-05-19T10:11:01.238Z,1.83
2023-05-19T10:14:17.108Z,1.80
2023-05-19T10:17:46.184Z,1.95
2023-05-19T10:21:02.053Z,1.80
2023-05-19T10:24:34.051Z,1.90
2023-05-19T10:27:50.219Z,1.40
2023-05-19T10:31:18.200Z,1.73
2023-05-19T10:34:36.130Z,2.00
2023-05-19T10:38:05.108Z,1.97
2023-05-19T10:41:23.338Z,1.80
2023-05-19T10:44:57.254Z,1.73
2023-05-19T10:48:01.206Z,1.47
2023-05-19T10:51:29.185Z,1.30
2023-05-19T10:54:36.232Z,1.83
2023-05-19T10:58:06.253Z,1.73
2023-05-19T11:01:42.263Z,1.50
2023-05-19T11:05:14.749Z,1.77
2023-05-19T11:08:33.303Z,1.67
2023-05-19T11:12:12.365Z,1.70
2023-05-19T11:15:32.555Z,2.10
2023-05-19T11:18:51.392Z,1.67
2023-05-19T11:22:10.361Z,2.23
2023-05-19T11:25:38.311Z,1.90
2023-05-19T11:28:54.355Z,1.80
2023-05-19T11:32:29.417Z,2.20
2023-05-19T11:35:45.112Z,1.60
2023-05-19T11:42:17.373Z,1.80
2023-05-19T11:45:55.436Z,1.57
2023-05-19T11:49:18.482Z,2.27
2023-05-19T11:52:49.468Z,1.80
2023-05-19T11:56:08.485Z,1.90
2023-05-19T11:59:27.617Z,1.95
2023-05-19T12:02:43.493Z,1.77
2023-05-19T12:06:15.421Z,1.70
2023-05-19T12:09:31.502Z,2.20
2023-05-19T12:12:47.505Z,1.53
2023-05-19T12:15:51.511Z,1.77
2023-05-19T12:19:07.528Z,1.87
2023-05-19T12:22:27.446Z,2.40
2023-05-19T12:25:58.502Z,2.20
2023-05-19T12:29:02.486Z,2.00
2023-05-19T12:32:30.497Z,1.23
2023-05-19T12:35:46.462Z,2.05
2023-05-19T12:39:22.555Z,1.77
2023-05-19T12:42:38.643Z,2.35
2023-05-19T12:46:06.527Z,1.97
2023-05-19T12:49:23.483Z,1.60
2023-05-19T12:52:54.542Z,1.73
2023-05-19T12:56:14.561Z,1.97
2023-05-19T12:59:48.615Z,1.60
2023-05-19T13:03:04.841Z,1.70
2023-05-19T13:06:35.630Z,1.60
2023-05-19T13:09:39.595Z,2.07
2023-05-19T13:13:14.616Z,1.63
2023-05-19T13:16:18.714Z,2.10
2023-05-19T13:19:35.638Z,1.90
2023-05-19T13:22:39.650Z,1.70
2023-05-19T13:26:10.729Z,1.40
2023-05-19T13:29:30.716Z,2.13
2023-05-19T13:32:46.669Z,1.90
2023-05-19T13:35:53.693Z,1.87
2023-05-19T13:39:12.729Z,1.70
2023-05-19T13:42:16.757Z,1.53
2023-05-19T13:45:49.826Z,1.80
2023-05-19T13:48:53.748Z,1.53
2023-05-19T13:52:12.826Z,1.93
2023-05-19T13:55:30.838Z,1.50
2023-05-19T13:58:47.741Z,2.20
2023-05-19T14:02:04.887Z,1.75
2023-05-19T14:05:32.862Z,1.70
2023-05-19T14:08:36.815Z,1.80
2023-05-19T14:12:05.747Z,2.03
2023-05-19T14:15:11.164Z,2.00
2023-05-19T14:18:44.745Z,2.00
2023-05-19T14:22:00.844Z,1.57
2023-05-19T14:25:29.974Z,2.07
2023-05-19T14:28:33.687Z,1.67
2023-05-19T14:31:54.874Z,2.30
2023-05-19T14:35:11.938Z,1.83
2023-05-19T14:38:29.386Z,1.90
2023-05-19T14:41:31.888Z,1.50
2023-05-19T14:44:50.967Z,1.30
2023-05-19T14:47:55.012Z,2.53
2023-05-19T14:51:26.920Z,1.70
2023-05-19T14:54:30.964Z,2.37
2023-05-19T14:57:46.942Z,2.20
2023-05-19T15:01:03.005Z,1.50
2023-05-19T15:04:22.214Z,1.57
2023-05-19T15:07:39.154Z,1.70
2023-05-19T15:11:15.016Z,1.87
2023-05-19T15:14:31.305Z,1.63
2023-05-19T15:17:49.991Z,2.03
2023-05-19T15:20:54.064Z,1.97
2023-05-19T15:24:26.280Z,1.85
2023-05-19T15:27:30.063Z,1.70
2023-05-19T15:30:46.159Z,1.60
2023-05-19T15:34:02.034Z,1.90
2023-05-19T15:37:20.848Z,1.70
2023-05-19T15:40:40.113Z,1.67
2023-05-19T15:43:59.105Z,1.30
2023-05-19T15:47:03.152Z,1.73
2023-05-19T15:50:19.196Z,1.83
2023-05-19T15:53:23.110Z,2.20
2023-05-19T15:56:58.205Z,1.77
2023-05-19T16:00:02.091Z,1.60
2023-05-19T16:03:21.316Z,1.70
2023-05-19T16:06:25.151Z,1.90
2023-05-19T16:09:44.136Z,2.07
2023-05-19T16:13:01.311Z,1.73
2023-05-19T16:16:32.345Z,1.37
2023-05-19T16:19:36.250Z,2.00
2023-05-19T16:22:55.284Z,1.77
2023-05-19T16:25:59.584Z,1.83
2023-05-19T16:29:34.356Z,1.83
2023-05-19T16:32:38.729Z,1.90
2023-05-19T16:35:57.381Z,1.70
2023-05-19T16:39:01.209Z,1.67
2023-05-19T16:42:32.362Z,1.83
2023-05-19T16:45:49.483Z,1.80
2023-05-19T16:49:08.256Z,1.90
2023-05-19T16:52:12.235Z,1.90
2023-05-19T16:55:31.281Z,1.50
2023-05-19T16:58:35.268Z,1.90
2023-05-19T17:02:07.326Z,1.80
2023-05-19T17:05:11.284Z,1.87
2023-05-19T17:08:33.344Z,2.13
2023-05-19T17:11:49.302Z,1.50
2023-05-19T17:15:08.570Z,2.20
2023-05-19T17:18:28.548Z,2.00
2023-05-19T17:21:56.353Z,1.90
2023-05-19T17:25:03.493Z,1.47
2023-05-19T17:28:22.465Z,1.80
2023-05-19T17:31:38.508Z,1.10
2023-05-19T17:35:13.545Z,1.70
2023-05-19T17:38:17.385Z,1.70
2023-05-19T17:41:33.525Z,1.50
2023-05-19T17:44:49.249Z,1.60
2023-05-19T17:48:05.431Z,1.43
2023-05-19T17:51:25.415Z,1.75
2023-05-19T17:54:41.563Z,2.20
2023-05-19T17:57:57.527Z,2.10
2023-05-19T18:01:16.555Z,2.03
2023-05-19T18:04:33.578Z,2.00
2023-05-19T18:07:53.765Z,2.30
2023-05-19T18:11:24.662Z,1.70
2023-05-19T18:14:28.512Z,2.20
2023-05-19T18:17:47.636Z,2.20
2023-05-19T18:21:03.620Z,2.00
2023-05-19T18:24:33.573Z,2.23
2023-05-19T18:27:37.615Z,2.50
2023-05-19T18:30:53.628Z,2.10
2023-05-19T18:34:09.854Z,2.20
2023-05-19T18:37:25.647Z,2.43
2023-05-19T18:40:43.569Z,1.80
2023-05-19T18:44:00.660Z,2.27
2023-05-19T18:47:04.697Z,2.73
2023-05-19T18:50:23.737Z,1.83
2023-05-19T18:53:27.636Z,2.70
2023-05-19T18:56:59.910Z,2.40
2023-05-19T19:00:03.733Z,1.83
2023-05-19T19:03:22.703Z,2.33
2023-05-19T19:06:26.646Z,2.57
2023-05-19T19:09:42.694Z,1.90
2023-05-19T19:13:02.828Z,2.30
2023-05-19T19:16:33.817Z,2.30
2023-05-19T19:19:37.877Z,2.40
2023-05-19T19:22:53.724Z,2.10
2023-05-19T19:25:57.838Z,2.15
2023-05-19T19:29:32.837Z,2.13
2023-05-19T19:32:36.789Z,2.03
2023-05-19T19:35:55.787Z,2.27
2023-05-19T19:39:00.187Z,1.93
2023-05-19T19:42:18.840Z,2.57
2023-05-19T19:45:36.774Z,2.10
2023-05-19T19:48:55.861Z,1.80
2023-05-19T19:51:59.838Z,2.20
2023-05-19T19:55:19.122Z,2.00
2023-05-19T19:58:22.876Z,2.27
2023-05-19T20:01:58.145Z,2.77
2023-05-19T20:05:16.920Z,2.53
2023-05-19T20:08:20.912Z,1.90
2023-05-19T20:11:39.904Z,1.83
2023-05-19T20:14:43.992Z,1.70
2023-05-19T20:18:18.947Z,2.27
2023-05-19T20:21:23.004Z,2.43
2023-05-19T20:24:41.933Z,2.15
2023-05-19T20:27:45.997Z,2.33
2023-05-19T20:31:02.123Z,2.33
2023-05-19T20:34:20.373Z,2.50
2023-05-19T20:37:39.981Z,2.23
2023-05-19T20:40:45.166Z,2.60
2023-05-19T20:44:06.179Z,1.90
2023-05-19T20:47:16.001Z,2.43
2023-05-19T20:50:50.387Z,2.47
2023-05-19T20:53:54.269Z,2.37
2023-05-19T20:57:11.475Z,2.30
2023-05-19T21:00:19.116Z,2.67
2023-05-19T21:03:50.480Z,2.60
2023-05-19T21:07:12.258Z,2.47
2023-05-19T21:10:29.427Z,2.10
2023-05-19T21:13:48.213Z,2.20
2023-05-19T21:17:17.589Z,2.30
2023-05-19T21:20:37.382Z,2.53
2023-05-19T21:24:11.353Z,2.10
2023-05-19T21:27:15.248Z,2.60
2023-05-19T21:30:34.633Z,2.33
2023-05-19T21:33:39.182Z,2.60
2023-05-19T21:36:56.335Z,2.83
2023-05-19T21:40:16.251Z,2.30
2023-05-19T21:43:36.272Z,3.00
2023-05-19T21:46:40.282Z,2.50
2023-05-19T21:49:56.172Z,2.83
2023-05-19T21:53:12.244Z,2.63
2023-05-19T21:56:44.192Z,2.80
2023-05-19T21:59:48.312Z,2.60
2023-05-19T22:02:53.807Z,2.73
2023-05-19T22:06:22.215Z,3.40
2023-05-19T22:09:26.368Z,2.80
2023-05-19T22:12:59.247Z,2.83
2023-05-19T22:16:03.464Z,3.25
2023-05-19T22:19:22.409Z,3.40
2023-05-19T22:22:26.386Z,2.85
2023-05-19T22:25:57.856Z,2.77
2023-05-19T22:29:17.573Z,2.85
2023-05-19T22:32:34.403Z,2.97
2023-05-19T22:35:38.463Z,3.40
2023-05-19T22:38:55.317Z,3.10
2023-05-19T22:41:59.413Z,3.05
2023-05-19T22:45:32.434Z,2.70
2023-05-19T22:48:36.398Z,2.50
2023-05-19T22:51:55.401Z,2.75
2023-05-19T22:54:59.542Z,2.53
2023-05-19T22:58:16.449Z,2.70
2023-05-19T23:01:34.433Z,2.60
2023-05-19T23:04:53.408Z,3.05
2023-05-19T23:07:57.478Z,2.80
2023-05-19T23:11:26.518Z,2.50
2023-05-19T23:14:30.522Z,3.25
2023-05-19T23:17:59.518Z,2.43
2023-05-19T23:21:03.643Z,2.45
2023-05-19T23:24:22.484Z,2.95
2023-05-19T23:27:26.745Z,2.33
2023-05-19T23:30:45.727Z,2.70
2023-05-19T23:34:05.579Z,2.50
2023-05-19T23:37:24.627Z,2.80
2023-05-19T23:40:40.564Z,2.50
2023-05-19T23:43:59.506Z,2.55
2023-05-19T23:47:03.635Z,2.20
2023-05-19T23:50:36.624Z,3.15
2023-05-19T23:53:40.692Z,2.45
2023-05-19T23:56:59.704Z,2.20
